createdAt,value
2018-05-25T00:01:09.319Z,58.70
2018-05-25T00:03:45.726Z,59.00
2018-05-25T00:06:22.640Z,59.10
2018-05-25T00:09:00.399Z,59.70
2018-05-25T00:11:36.770Z,60.00
2018-05-25T00:14:14.470Z,59.60
2018-05-25T00:16:51.241Z,60.50
2018-05-25T00:19:27.899Z,61.30
2018-05-25T00:22:04.892Z,61.40
2018-05-25T00:24:42.147Z,61.80
2018-05-25T00:27:20.384Z,62.20
2018-05-25T00:29:57.379Z,62.50
2018-05-25T00:32:34.625Z,63.10
2018-05-25T00:35:11.013Z,63.30
2018-05-25T00:37:47.380Z,63.20
2018-05-25T00:40:25.329Z,63.50
2018-05-25T00:43:01.783Z,63.90
2018-05-25T00:45:38.307Z,64.20
2018-05-25T00:48:15.325Z,64.00
2018-05-25T00:50:51.970Z,64.30
2018-05-25T00:53:28.402Z,64.30
2018-05-25T00:56:04.173Z,64.60
2018-05-25T00:58:42.616Z,64.80
2018-05-25T01:01:19.585Z,65.20
2018-05-25T01:03:56.260Z,65.20
2018-05-25T01:06:32.745Z,65.50
2018-05-25T01:09:10.216Z,65.50
2018-05-25T01:11:46.918Z,65.80
2018-05-25T01:14:23.880Z,66.10
2018-05-25T01:17:00.544Z,66.60
2018-05-25T01:19:37.838Z,67.10
2018-05-25T01:22:13.882Z,67.30
2018-05-25T01:24:51.391Z,67.50
2018-05-25T01:27:30.412Z,67.50
2018-05-25T01:30:06.041Z,67.70
2018-05-25T01:32:43.804Z,67.90
2018-05-25T01:35:20.629Z,67.70
2018-05-25T01:37:57.300Z,68.00
2018-05-25T01:40:34.297Z,67.90
2018-05-25T01:43:10.638Z,68.80
2018-05-25T01:45:46.863Z,68.50
2018-05-25T01:48:23.173Z,68.80
2018-05-25T01:51:00.890Z,67.50
2018-05-25T01:53:38.569Z,67.50
2018-05-25T01:56:15.242Z,67.00
2018-05-25T01:58:52.813Z,66.70
2018-05-25T02:01:31.710Z,66.80
2018-05-25T02:04:07.515Z,66.80
2018-05-25T02:06:44.895Z,66.60
2018-05-25T02:09:22.292Z,66.40
2018-05-25T02:11:58.963Z,66.50
2018-05-25T02:14:35.611Z,67.00
2018-05-25T02:17:13.543Z,67.20
2018-05-25T02:19:51.237Z,67.80
2018-05-25T02:22:27.885Z,67.00
2018-05-25T02:25:04.734Z,67.00
2018-05-25T02:27:41.754Z,67.10
2018-05-25T02:30:18.305Z,66.80
2018-05-25T02:32:56.944Z,66.60
2018-05-25T02:35:33.385Z,66.90
2018-05-25T02:38:11.519Z,66.90
2018-05-25T02:40:47.896Z,67.00
2018-05-25T02:43:25.492Z,67.60
2018-05-25T02:46:03.101Z,66.80
2018-05-25T02:48:41.510Z,67.00
2018-05-25T02:51:18.261Z,66.90
2018-05-25T02:53:54.592Z,67.00
2018-05-25T02:56:30.825Z,67.20
2018-05-25T02:59:07.990Z,67.10
2018-05-25T03:01:45.880Z,67.80
2018-05-25T03:04:22.237Z,67.80
2018-05-25T03:06:58.920Z,67.80
2018-05-25T03:09:34.940Z,67.30
2018-05-25T03:12:11.141Z,67.40
2018-05-25T03:14:48.929Z,67.70
2018-05-25T03:17:26.849Z,67.60
2018-05-25T03:20:03.587Z,69.10
2018-05-25T03:22:40.794Z,68.00
2018-05-25T03:25:18.606Z,68.80
2018-05-25T03:27:55.120Z,68.70
2018-05-25T03:30:32.241Z,68.30
2018-05-25T03:33:09.341Z,68.00
2018-05-25T03:35:46.613Z,67.80
2018-05-25T03:38:23.825Z,67.80
2018-05-25T03:41:00.651Z,68.30
2018-05-25T03:43:37.416Z,67.80
2018-05-25T03:46:13.377Z,68.00
2018-05-25T03:48:50.265Z,67.20
2018-05-25T03:51:27.567Z,67.20
2018-05-25T03:54:03.620Z,67.10
2018-05-25T03:56:40.256Z,66.80
2018-05-25T03:59:34.610Z,67.20
2018-05-25T04:02:10.014Z,66.90
2018-05-25T04:04:49.631Z,67.20
2018-05-25T04:07:25.911Z,66.90
2018-05-25T04:10:02.090Z,67.40
2018-05-25T04:12:38.576Z,66.80
2018-05-25T04:15:16.661Z,66.20
2018-05-25T04:17:53.184Z,65.70
2018-05-25T04:20:30.636Z,65.50
2018-05-25T04:23:08.569Z,65.20
2018-05-25T04:25:45.947Z,65.20
2018-05-25T04:28:21.892Z,65.30
2018-05-25T04:30:58.345Z,64.90
2018-05-25T04:33:36.414Z,64.90
2018-05-25T04:36:12.678Z,64.20
2018-05-25T04:38:50.432Z,63.80
2018-05-25T04:41:26.613Z,64.00
2018-05-25T04:44:03.485Z,63.90
2018-05-25T04:46:40.418Z,63.30
2018-05-25T04:49:18.332Z,62.00
2018-05-25T04:51:55.322Z,61.00
2018-05-25T04:54:32.196Z,60.70
2018-05-25T04:57:08.335Z,60.50
2018-05-25T04:59:45.588Z,60.10
2018-05-25T05:02:23.553Z,58.80
2018-05-25T05:05:00.650Z,59.20
2018-05-25T05:07:38.122Z,59.40
2018-05-25T05:10:15.646Z,59.50
2018-05-25T05:12:53.643Z,59.40
2018-05-25T05:15:30.599Z,59.10
2018-05-25T05:18:07.129Z,58.80
2018-05-25T05:20:45.212Z,59.40
2018-05-25T05:23:21.531Z,59.10
2018-05-25T05:25:58.804Z,58.70
2018-05-25T05:28:35.181Z,57.80
2018-05-25T05:31:13.057Z,55.70
2018-05-25T05:33:51.309Z,54.50
2018-05-25T05:36:28.245Z,55.70
2018-05-25T05:39:05.072Z,56.60
2018-05-25T05:41:42.909Z,57.00
2018-05-25T05:44:21.045Z,57.00
2018-05-25T05:46:58.025Z,56.40
2018-05-25T05:49:36.157Z,55.20
2018-05-25T05:52:13.606Z,55.60
2018-05-25T05:54:50.515Z,55.40
2018-05-25T05:57:28.000Z,55.20
2018-05-25T06:00:03.794Z,55.50
2018-05-25T06:02:41.337Z,55.80
2018-05-25T06:05:18.522Z,55.70
2018-05-25T06:07:55.068Z,55.70
2018-05-25T06:10:33.153Z,55.00
2018-05-25T06:13:11.201Z,51.70
2018-05-25T06:15:48.183Z,54.50
2018-05-25T06:18:25.616Z,53.70
2018-05-25T06:21:03.381Z,54.30
2018-05-25T06:23:39.753Z,54.90
2018-05-25T06:26:16.176Z,54.40
2018-05-25T06:28:53.973Z,55.00
2018-05-25T06:31:30.964Z,55.50
2018-05-25T06:34:07.189Z,55.90
2018-05-25T06:36:43.705Z,55.90
2018-05-25T06:39:20.685Z,55.20
2018-05-25T06:41:57.664Z,54.50
2018-05-25T06:44:34.649Z,53.60
2018-05-25T06:47:12.570Z,53.60
2018-05-25T06:49:48.762Z,53.50
2018-05-25T06:52:26.545Z,53.20
2018-05-25T06:55:03.151Z,53.30
2018-05-25T06:57:41.869Z,52.20
2018-05-25T07:00:21.280Z,52.50
2018-05-25T07:02:58.657Z,51.50
2018-05-25T07:05:35.709Z,51.70
2018-05-25T07:08:12.685Z,50.30
2018-05-25T07:10:50.689Z,49.60
2018-05-25T07:13:27.612Z,50.80
2018-05-25T07:16:04.902Z,51.50
2018-05-25T07:18:41.082Z,50.70
2018-05-25T07:21:18.352Z,50.70
2018-05-25T07:23:54.731Z,51.20
2018-05-25T07:26:33.089Z,51.20
2018-05-25T07:29:09.761Z,50.20
2018-05-25T07:31:47.861Z,49.00
2018-05-25T07:34:25.245Z,48.80
2018-05-25T07:37:02.657Z,47.90
2018-05-25T07:39:40.132Z,46.70
2018-05-25T07:42:16.281Z,47.50
2018-05-25T07:44:55.087Z,46.20
2018-05-25T07:47:31.962Z,46.90
2018-05-25T07:50:10.003Z,47.50
2018-05-25T07:52:47.753Z,45.30
2018-05-25T07:55:24.758Z,45.00
2018-05-25T07:58:01.764Z,42.10
2018-05-25T08:00:38.674Z,38.20
2018-05-25T08:03:16.301Z,34.60
2018-05-25T08:05:55.738Z,31.40
2018-05-25T08:08:34.080Z,32.30
2018-05-25T08:11:11.902Z,32.20
2018-05-25T08:13:49.160Z,32.90
2018-05-25T08:16:26.080Z,33.40
2018-05-25T08:19:04.039Z,33.70
2018-05-25T08:21:41.390Z,33.80
2018-05-25T08:24:17.989Z,31.00
2018-05-25T08:26:54.852Z,30.40
2018-05-25T08:29:33.105Z,30.10
2018-05-25T08:32:10.171Z,30.60
2018-05-25T08:34:47.442Z,30.90
2018-05-25T08:37:25.061Z,27.40
2018-05-25T08:40:02.264Z,26.20
2018-05-25T08:42:40.339Z,28.10
2018-05-25T08:45:18.411Z,28.00
2018-05-25T08:47:54.915Z,28.10
2018-05-25T08:50:32.097Z,27.30
2018-05-25T08:53:09.385Z,26.90
2018-05-25T08:55:46.753Z,26.00
2018-05-25T08:58:24.597Z,26.20
2018-05-25T09:01:02.340Z,23.70
2018-05-25T09:03:39.440Z,23.70
2018-05-25T09:06:15.941Z,24.00
2018-05-25T09:08:54.028Z,24.20
2018-05-25T09:11:30.669Z,23.50
2018-05-25T09:14:08.766Z,23.30
2018-05-25T09:16:46.201Z,22.60
2018-05-25T09:19:23.187Z,22.90
2018-05-25T09:22:00.173Z,22.80
2018-05-25T09:24:37.729Z,23.70
2018-05-25T09:27:14.452Z,23.00
2018-05-25T09:29:51.401Z,23.00
2018-05-25T09:32:28.451Z,23.30
2018-05-25T09:35:05.039Z,21.80
2018-05-25T09:37:44.215Z,22.30
2018-05-25T09:40:22.168Z,22.30
2018-05-25T09:42:59.093Z,22.30
2018-05-25T09:45:35.164Z,21.80
2018-05-25T09:48:12.888Z,21.10
2018-05-25T09:50:50.318Z,22.30
2018-05-25T09:53:26.682Z,21.90
2018-05-25T09:56:04.590Z,19.90
2018-05-25T09:58:41.864Z,19.30
2018-05-25T10:01:19.709Z,19.70
2018-05-25T10:03:56.488Z,19.60
2018-05-25T10:06:33.326Z,19.70
2018-05-25T10:09:09.944Z,21.80
2018-05-25T10:11:47.642Z,21.00
2018-05-25T10:14:25.229Z,21.80
2018-05-25T10:17:02.273Z,21.10
2018-05-25T10:19:40.250Z,21.60
2018-05-25T10:22:17.194Z,19.40
2018-05-25T10:24:54.032Z,19.80
2018-05-25T10:27:31.723Z,20.10
2018-05-25T10:30:07.421Z,19.80
2018-05-25T10:32:44.795Z,20.70
2018-05-25T10:35:22.504Z,21.50
2018-05-25T10:38:00.829Z,22.30
2018-05-25T10:40:38.169Z,22.60
2018-05-25T10:43:15.908Z,23.70
2018-05-25T10:45:53.337Z,23.70
2018-05-25T10:48:30.010Z,22.70
2018-05-25T10:51:06.521Z,23.60
2018-05-25T10:53:43.467Z,24.10
2018-05-25T10:56:22.130Z,22.50
2018-05-25T10:59:00.076Z,23.20
2018-05-25T11:01:37.072Z,24.10
2018-05-25T11:04:14.035Z,24.10
2018-05-25T11:06:54.521Z,26.30
2018-05-25T11:09:33.093Z,26.10
2018-05-25T11:12:10.854Z,27.20
2018-05-25T11:14:48.589Z,28.90
2018-05-25T11:17:25.497Z,28.00
2018-05-25T11:20:03.602Z,26.10
2018-05-25T11:22:40.681Z,26.10
2018-05-25T11:25:17.538Z,24.10
2018-05-25T11:27:56.073Z,26.30
2018-05-25T11:30:33.777Z,25.70
2018-05-25T11:33:11.564Z,25.70
2018-05-25T11:35:48.777Z,24.00
2018-05-25T11:38:26.062Z,25.40
2018-05-25T11:41:03.734Z,26.20
2018-05-25T11:43:40.310Z,26.30
2018-05-25T11:46:18.315Z,25.10
2018-05-25T11:48:55.083Z,24.10
2018-05-25T11:51:32.432Z,24.50
2018-05-25T11:54:11.089Z,24.50
2018-05-25T11:56:47.478Z,24.20
2018-05-25T11:59:23.650Z,24.20
2018-05-25T12:02:00.317Z,24.40
2018-05-25T12:04:37.247Z,24.70
2018-05-25T12:07:15.544Z,26.70
2018-05-25T12:09:55.312Z,27.50
2018-05-25T12:12:33.871Z,29.40
2018-05-25T12:15:11.866Z,24.80
2018-05-25T12:17:49.573Z,25.10
2018-05-25T12:20:28.245Z,23.50
2018-05-25T12:23:07.594Z,23.50
2018-05-25T12:25:46.588Z,22.60
2018-05-25T12:28:24.187Z,22.80
2018-05-25T12:31:01.394Z,21.60
2018-05-25T12:33:38.380Z,22.30
2018-05-25T12:36:15.208Z,22.60
2018-05-25T12:38:52.964Z,23.40
2018-05-25T12:41:29.365Z,23.10
2018-05-25T12:44:05.030Z,23.20
2018-05-25T12:46:42.619Z,22.20
2018-05-25T12:49:20.725Z,22.50
2018-05-25T12:51:57.958Z,22.70
2018-05-25T12:54:35.763Z,22.30
2018-05-25T12:57:13.534Z,22.70
2018-05-25T12:59:50.233Z,24.50
2018-05-25T13:02:28.544Z,23.30
2018-05-25T13:05:05.665Z,23.30
2018-05-25T13:07:42.405Z,23.90
2018-05-25T13:10:20.397Z,23.50
2018-05-25T13:12:58.477Z,23.80
2018-05-25T13:15:34.973Z,24.00
2018-05-25T13:18:11.969Z,24.20
2018-05-25T13:20:49.238Z,23.20
2018-05-25T13:23:27.148Z,24.50
2018-05-25T13:26:03.238Z,23.30
2018-05-25T13:28:40.287Z,24.70
2018-05-25T13:31:17.824Z,25.20
2018-05-25T13:33:55.621Z,26.00
2018-05-25T13:36:32.521Z,24.80
2018-05-25T13:39:08.969Z,25.30
2018-05-25T13:41:46.543Z,24.20
2018-05-25T13:44:23.362Z,24.90
2018-05-25T13:47:01.515Z,24.50
2018-05-25T13:49:38.486Z,25.20
2018-05-25T13:52:15.463Z,24.50
2018-05-25T13:54:53.353Z,24.40
2018-05-25T13:57:31.579Z,25.70
2018-05-25T14:00:08.733Z,26.40
2018-05-25T14:02:46.182Z,27.70
2018-05-25T14:05:23.668Z,28.60
2018-05-25T14:08:00.384Z,30.00
2018-05-25T14:10:38.089Z,29.80
2018-05-25T14:13:15.890Z,29.70
2018-05-25T14:15:52.541Z,30.00
2018-05-25T14:18:30.981Z,30.90
2018-05-25T14:21:09.005Z,29.80
2018-05-25T14:23:46.089Z,29.20
2018-05-25T14:26:24.584Z,28.50
2018-05-25T14:29:02.093Z,28.50
2018-05-25T14:31:38.754Z,28.30
2018-05-25T14:34:16.673Z,28.10
2018-05-25T14:36:53.913Z,27.60
2018-05-25T14:39:30.134Z,27.10
2018-05-25T14:42:07.908Z,27.20
2018-05-25T14:44:45.778Z,26.80
2018-05-25T14:47:23.907Z,26.50
2018-05-25T14:50:02.146Z,25.30
2018-05-25T14:52:40.456Z,25.20
2018-05-25T14:55:17.528Z,26.10
2018-05-25T14:57:55.000Z,26.00
2018-05-25T15:00:32.049Z,26.20
2018-05-25T15:03:10.930Z,27.00
2018-05-25T15:05:48.130Z,26.90
2018-05-25T15:08:25.293Z,27.40
2018-05-25T15:11:02.084Z,28.30
2018-05-25T15:13:39.839Z,28.10
2018-05-25T15:16:17.040Z,28.50
2018-05-25T15:18:53.909Z,28.80
2018-05-25T15:21:31.312Z,29.70
2018-05-25T15:24:08.514Z,30.40
2018-05-25T15:26:44.758Z,30.00
2018-05-25T15:29:21.536Z,29.40
2018-05-25T15:31:58.769Z,29.50
2018-05-25T15:34:35.787Z,29.60
2018-05-25T15:37:12.764Z,30.00
2018-05-25T15:39:49.756Z,29.10
2018-05-25T15:42:26.295Z,29.90
2018-05-25T15:45:03.006Z,29.40
2018-05-25T15:47:40.680Z,28.50
2018-05-25T15:50:18.921Z,29.00
2018-05-25T15:52:55.108Z,28.70
2018-05-25T15:55:33.169Z,29.50
2018-05-25T15:58:10.123Z,28.20
2018-05-25T16:00:48.361Z,29.20
2018-05-25T16:03:26.254Z,29.10
2018-05-25T16:06:03.237Z,28.90
2018-05-25T16:08:40.285Z,28.80
2018-05-25T16:11:17.073Z,29.00
2018-05-25T16:13:54.478Z,28.50
2018-05-25T16:16:31.419Z,28.30
2018-05-25T16:19:08.208Z,28.50
2018-05-25T16:21:44.544Z,28.70
2018-05-25T16:24:21.382Z,28.70
2018-05-25T16:26:57.445Z,29.20
2018-05-25T16:29:33.903Z,30.00
2018-05-25T16:32:12.589Z,31.00
2018-05-25T16:34:50.840Z,31.00
2018-05-25T16:37:27.292Z,31.30
2018-05-25T16:40:03.905Z,30.40
2018-05-25T16:42:41.662Z,31.40
2018-05-25T16:45:18.220Z,31.40
2018-05-25T16:47:54.909Z,32.10
2018-05-25T16:50:32.193Z,32.30
2018-05-25T16:53:09.484Z,32.00
2018-05-25T16:55:46.145Z,32.60
2018-05-25T16:58:23.666Z,32.90
2018-05-25T17:01:00.514Z,33.70
2018-05-25T17:03:37.709Z,33.70
2018-05-25T17:06:14.101Z,33.90
2018-05-25T17:08:51.982Z,33.90
2018-05-25T17:11:28.405Z,34.30
2018-05-25T17:14:07.370Z,34.60
2018-05-25T17:16:44.450Z,34.00
2018-05-25T17:19:20.900Z,34.00
2018-05-25T17:21:57.538Z,34.40
2018-05-25T17:24:37.505Z,34.30
2018-05-25T17:27:15.465Z,34.40
2018-05-25T17:29:52.783Z,34.70
2018-05-25T17:32:30.198Z,34.60
2018-05-25T17:35:07.841Z,34.20
2018-05-25T17:37:43.787Z,34.10
2018-05-25T17:40:20.375Z,34.50
2018-05-25T17:42:57.354Z,35.20
2018-05-25T17:45:35.957Z,35.10
2018-05-25T17:48:12.526Z,35.40
2018-05-25T17:50:50.190Z,35.70
2018-05-25T17:53:27.090Z,35.70
2018-05-25T17:56:03.512Z,36.10
2018-05-25T17:58:41.913Z,35.90
2018-05-25T18:01:19.602Z,36.30
2018-05-25T18:03:56.537Z,36.80
2018-05-25T18:06:33.831Z,37.90
2018-05-25T18:09:12.338Z,37.40
2018-05-25T18:11:51.673Z,37.80
2018-05-25T18:14:29.682Z,37.80
2018-05-25T18:17:06.059Z,38.20
2018-05-25T18:19:43.334Z,38.20
2018-05-25T18:22:19.501Z,38.30
2018-05-25T18:24:56.683Z,38.50
2018-05-25T18:27:33.569Z,38.50
2018-05-25T18:30:11.630Z,38.80
2018-05-25T18:32:48.851Z,39.10
2018-05-25T18:35:25.734Z,39.70
2018-05-25T18:38:02.193Z,40.20
2018-05-25T18:40:39.598Z,40.20
2018-05-25T18:43:16.369Z,40.10
2018-05-25T18:45:53.048Z,41.30
2018-05-25T18:48:29.375Z,41.70
2018-05-25T18:51:06.469Z,41.50
2018-05-25T18:53:42.671Z,42.00
2018-05-25T18:56:19.617Z,43.00
2018-05-25T18:58:56.529Z,42.30
2018-05-25T19:01:34.389Z,42.30
2018-05-25T19:04:11.697Z,43.20
2018-05-25T19:06:48.720Z,43.00
2018-05-25T19:09:26.319Z,42.80
2018-05-25T19:12:02.933Z,43.40
2018-05-25T19:14:38.805Z,43.90
2018-05-25T19:17:15.964Z,44.30
2018-05-25T19:19:53.496Z,44.70
2018-05-25T19:22:30.225Z,45.00
2018-05-25T19:25:07.240Z,45.50
2018-05-25T19:27:43.786Z,46.60
2018-05-25T19:30:21.559Z,46.80
2018-05-25T19:32:58.120Z,47.80
2018-05-25T19:35:34.852Z,48.00
2018-05-25T19:38:12.035Z,48.40
2018-05-25T19:40:49.105Z,49.20
2018-05-25T19:43:26.995Z,49.90
2018-05-25T19:46:04.025Z,50.10
2018-05-25T19:48:42.342Z,50.40
2018-05-25T19:51:20.713Z,50.60
2018-05-25T19:53:58.912Z,51.30
2018-05-25T19:56:37.156Z,51.50
2018-05-25T19:59:14.005Z,52.20
2018-05-25T20:01:51.093Z,52.60
2018-05-25T20:04:28.076Z,53.20
2018-05-25T20:07:05.056Z,53.70
2018-05-25T20:09:42.404Z,54.30
2018-05-25T20:12:20.550Z,54.00
2018-05-25T20:15:01.923Z,54.70
2018-05-25T20:17:40.350Z,53.90
2018-05-25T20:20:16.996Z,54.70
2018-05-25T20:22:54.899Z,55.10
2018-05-25T20:25:31.275Z,55.50
2018-05-25T20:28:08.968Z,56.00
2018-05-25T20:30:47.721Z,55.70
2018-05-25T20:33:25.805Z,55.90
2018-05-25T20:36:04.537Z,56.10
2018-05-25T20:38:40.457Z,56.20
2018-05-25T20:41:18.004Z,56.10
2018-05-25T20:43:55.645Z,56.60
2018-05-25T20:46:32.198Z,57.50
2018-05-25T20:49:08.698Z,56.60
2018-05-25T20:51:44.780Z,55.30
2018-05-25T20:54:21.447Z,55.60
2018-05-25T20:56:58.433Z,54.60
2018-05-25T20:59:35.129Z,54.40
2018-05-25T21:02:11.374Z,54.20
2018-05-25T21:04:49.783Z,55.70
2018-05-25T21:07:26.986Z,55.70
2018-05-25T21:10:03.618Z,55.20
2018-05-25T21:12:41.616Z,55.00
2018-05-25T21:15:17.720Z,54.60
2018-05-25T21:17:55.664Z,54.90
2018-05-25T21:20:33.380Z,54.90
2018-05-25T21:23:09.589Z,55.10
2018-05-25T21:25:45.797Z,55.50
2018-05-25T21:28:24.023Z,55.60
2018-05-25T21:31:01.290Z,55.90
2018-05-25T21:33:37.969Z,56.10
2018-05-25T21:36:15.881Z,56.50
2018-05-25T21:38:53.340Z,56.60
2018-05-25T21:41:30.784Z,57.50
2018-05-25T21:44:07.994Z,58.10
2018-05-25T21:46:45.942Z,58.40
2018-05-25T21:49:22.927Z,58.40
2018-05-25T21:51:59.917Z,59.10
2018-05-25T21:54:37.140Z,59.30
2018-05-25T21:57:14.723Z,59.20
2018-05-25T21:59:51.781Z,59.40
2018-05-25T22:02:29.390Z,59.20
2018-05-25T22:05:07.141Z,59.00
2018-05-25T22:07:46.701Z,61.50
2018-05-25T22:10:23.925Z,59.30
2018-05-25T22:13:01.517Z,59.20
2018-05-25T22:15:37.941Z,59.30
2018-05-25T22:18:15.324Z,59.70
2018-05-25T22:20:53.199Z,60.00
2018-05-25T22:23:31.715Z,60.00
2018-05-25T22:26:08.018Z,60.10
2018-05-25T22:28:46.436Z,60.40
2018-05-25T22:31:22.820Z,60.80
2018-05-25T22:34:00.486Z,60.90
2018-05-25T22:36:36.993Z,61.10
2018-05-25T22:39:13.545Z,60.90
2018-05-25T22:41:50.797Z,61.20
2018-05-25T22:44:45.006Z,61.40
2018-05-25T22:47:38.893Z,61.50
2018-05-25T22:50:33.059Z,61.90
2018-05-25T22:53:14.417Z,62.10
2018-05-25T22:55:51.912Z,63.00
2018-05-25T22:58:30.471Z,63.00
2018-05-25T23:01:08.948Z,63.00
2018-05-25T23:03:45.381Z,62.60
2018-05-25T23:06:23.941Z,63.20
2018-05-25T23:09:00.655Z,63.10
2018-05-25T23:11:38.197Z,62.90
2018-05-25T23:14:15.533Z,63.10
2018-05-25T23:16:52.747Z,63.00
2018-05-25T23:19:31.034Z,62.90
2018-05-25T23:22:08.143Z,63.40
2018-05-25T23:24:45.247Z,63.70
2018-05-25T23:27:22.130Z,64.00
2018-05-25T23:29:59.419Z,64.00
2018-05-25T23:32:36.700Z,64.10
2018-05-25T23:35:13.671Z,64.40
2018-05-25T23:37:52.232Z,64.30
2018-05-25T23:40:29.165Z,64.10
2018-05-25T23:43:05.284Z,64.90
2018-05-25T23:45:43.861Z,65.70
2018-05-25T23:48:22.796Z,65.60
2018-05-25T23:51:00.163Z,65.40
2018-05-25T23:53:37.010Z,65.60
2018-05-25T23:56:13.838Z,65.70
2018-05-25T23:58:50.493Z,65.80
